Time;durP1;ratioP1;P1;durP2;ratioP2;P2;SDS_P1;SDS_P2;PMS_P1;PMS_P2;Temp;Humidity;BMP_temperature;BMP_pressure;BME280_temperature;BME280_humidity;BME280_pressure;Samples;Min_cycle;Max_cycle;Signal;HPM_P1;HPM_P2
2023/12/25 00:00:47;;;;;;;;;;;;;;;;;;4992296;28;19980;-61
2023/12/25 00:03:13;;;;;;;;;;;;;;;;;;4977283;28;19920;-62
2023/12/25 00:05:39;;;;;;;;;;;;;;;;;;4978054;28;20005;-62
2023/12/25 00:08:05;;;;;;;;;;;;;;;;;;4977221;28;19925;-63
2023/12/25 00:10:31;;;;;;;;;;;;;;;;;;4980251;28;19918;-62
2023/12/25 00:12:57;;;;;;;;;;;;;;;;;;4987945;28;19941;-61
2023/12/25 00:15:23;;;;;;;;;;;;;;;;;;4977867;28;19932;-58
2023/12/25 00:17:49;;;;;;;;;;;;;;;;;;4992720;28;20005;-63
2023/12/25 00:20:15;;;;;;;;;;;;;;;;;;4979961;28;19981;-62
2023/12/25 00:22:41;;;;;;;;;;;;;;;;;;4979449;28;19960;-62
2023/12/25 00:25:07;;;;;;;;;;;;;;;;;;4980412;28;19921;-61
2023/12/25 00:27:33;;;;;;;;;;;;;;;;;;4978116;28;20394;-63
2023/12/25 00:29:59;;;;;;;;;;;;;;;;;;4995412;28;19910;-62
2023/12/25 00:32:25;;;;;;;;;;;;;;;;;;4961053;28;19972;-61
2023/12/25 00:34:51;;;;;;;;;;;;;;;;;;4975378;28;20338;-61
2023/12/25 00:37:18;;;;;;;;;;;;;;;;;;4991457;28;19913;-62
2023/12/25 00:39:45;;;;;;;;;;;;;;;;;;4996028;28;19917;-61
2023/12/25 00:42:11;;;;;;;;;;;;;;;;;;4961368;28;19936;-62
2023/12/25 00:44:38;;;;;;;;;;;;;;;;;;4976324;28;19914;-62
2023/12/25 00:47:04;;;;;;;;;;;;;;;;;;4988237;28;20305;-59
2023/12/25 00:49:30;;;;;;;;;;;;;;;;;;4987691;28;19930;-62
2023/12/25 00:51:56;;;;;;;;;;;;;;;;;;4989287;28;19964;-61
2023/12/25 00:54:23;;;;;;;;;;;;;;;;;;4989968;28;19964;-62
2023/12/25 00:56:49;;;;;;;;;;;;;;;;;;4993303;28;19920;-62
2023/12/25 00:59:15;;;;;;;;;;;;;;;;;;4994061;28;19910;-60
2023/12/25 01:01:43;;;;;;;;;;;;;;;;;;4982213;28;20393;-60
2023/12/25 01:04:09;;;;;;;;;;;;;;;;;;4982059;28;19914;-61
2023/12/25 01:06:35;;;;;;;;;;;;;;;;;;4975745;28;20405;-62
2023/12/25 01:09:01;;;;;;;;;;;;;;;;;;4974107;28;20410;-62
2023/12/25 01:11:27;;;;;;;;;;;;;;;;;;4974675;28;19976;-61
2023/12/25 01:13:53;;;;;;;;;;;;;;;;;;4987562;28;20020;-61
2023/12/25 01:16:20;;;;;;;;;;;;;;;;;;4983657;28;19914;-60
2023/12/25 01:18:46;;;;;;;;;;;;;;;;;;4979865;28;19924;-62
2023/12/25 01:21:12;;;;;;;;;;;;;;;;;;4984318;28;19925;-63
2023/12/25 01:23:38;;;;;;;;;;;;;;;;;;4987219;28;20035;-62
2023/12/25 01:26:04;;;;;;;;;;;;;;;;;;4990517;28;19921;-60
2023/12/25 01:28:31;;;;;;;;;;;;;;;;;;4977143;28;20287;-61
2023/12/25 01:30:57;;;;;;;;;;;;;;;;;;4981196;28;19918;-57
2023/12/25 01:33:24;;;;;;;;;;;;;;;;;;4986861;28;19920;-61
2023/12/25 01:35:50;;;;;;;;;;;;;;;;;;4975329;28;19963;-62
2023/12/25 01:38:16;;;;;;;;;;;;;;;;;;4975379;28;19918;-60
2023/12/25 01:40:42;;;;;;;;;;;;;;;;;;4971383;28;20000;-62
2023/12/25 01:43:08;;;;;;;;;;;;;;;;;;4973146;28;19997;-59
2023/12/25 01:45:34;;;;;;;;;;;;;;;;;;4978820;28;19914;-62
2023/12/25 01:48:00;;;;;;;;;;;;;;;;;;4975800;28;19918;-61
2023/12/25 01:50:26;;;;;;;;;;;;;;;;;;4960548;28;19919;-62
2023/12/25 01:52:52;;;;;;;;;;;;;;;;;;4991848;28;19921;-60
2023/12/25 01:55:18;;;;;;;;;;;;;;;;;;4987463;28;19961;-62
2023/12/25 01:57:44;;;;;;;;;;;;;;;;;;4975131;28;20398;-60
2023/12/25 02:00:11;;;;;;;;;;;;;;;;;;4985288;28;20286;-62
2023/12/25 02:02:41;;;;;;;;;;;;;;;;;;4973879;28;19921;-58
2023/12/25 02:05:08;;;;;;;;;;;;;;;;;;4993997;28;20381;-60
2023/12/25 02:07:34;;;;;;;;;;;;;;;;;;4976780;28;20286;-61
2023/12/25 02:10:00;;;;;;;;;;;;;;;;;;4992556;28;19913;-61
2023/12/25 02:12:26;;;;;;;;;;;;;;;;;;4992640;28;19921;-61
2023/12/25 02:14:53;;;;;;;;;;;;;;;;;;4980875;28;19954;-63
2023/12/25 02:17:19;;;;;;;;;;;;;;;;;;4991116;28;20000;-61
2023/12/25 02:19:45;;;;;;;;;;;;;;;;;;4976629;28;19924;-62
2023/12/25 02:22:11;;;;;;;;;;;;;;;;;;4972867;28;19945;-63
2023/12/25 02:24:37;;;;;;;;;;;;;;;;;;4992627;28;19961;-60
2023/12/25 02:27:03;;;;;;;;;;;;;;;;;;4980036;28;19969;-61
2023/12/25 02:29:30;;;;;;;;;;;;;;;;;;4994001;28;20000;-61
2023/12/25 02:31:56;;;;;;;;;;;;;;;;;;4980002;28;19920;-61
2023/12/25 02:34:22;;;;;;;;;;;;;;;;;;4978225;28;19921;-65
2023/12/25 02:36:48;;;;;;;;;;;;;;;;;;4973069;28;19918;-60
2023/12/25 02:39:16;;;;;;;;;;;;;;;;;;4974250;28;19922;-61
2023/12/25 02:41:42;;;;;;;;;;;;;;;;;;4982164;28;19924;-57
2023/12/25 02:44:08;;;;;;;;;;;;;;;;;;4982500;28;20379;-61
2023/12/25 02:46:34;;;;;;;;;;;;;;;;;;4973372;28;19922;-62
2023/12/25 02:49:01;;;;;;;;;;;;;;;;;;4985693;28;19914;-59
2023/12/25 02:51:27;;;;;;;;;;;;;;;;;;4973044;28;19918;-62
2023/12/25 02:53:53;;;;;;;;;;;;;;;;;;4980345;28;20341;-63
2023/12/25 02:56:19;;;;;;;;;;;;;;;;;;4992032;28;19910;-62
2023/12/25 02:58:45;;;;;;;;;;;;;;;;;;4987958;28;19914;-63
2023/12/25 03:01:12;;;;;;;;;;;;;;;;;;4978739;28;19945;-60
2023/12/25 03:03:38;;;;;;;;;;;;;;;;;;4956606;28;19918;-61
2023/12/25 03:06:04;;;;;;;;;;;;;;;;;;4986086;28;19910;-61
2023/12/25 03:08:30;;;;;;;;;;;;;;;;;;4993028;28;19992;-60
2023/12/25 03:10:56;;;;;;;;;;;;;;;;;;4973303;28;19922;-60
2023/12/25 03:13:22;;;;;;;;;;;;;;;;;;4973876;28;20009;-59
2023/12/25 03:15:48;;;;;;;;;;;;;;;;;;4977417;28;19961;-63
2023/12/25 03:18:14;;;;;;;;;;;;;;;;;;4972462;28;19924;-61
2023/12/25 03:20:40;;;;;;;;;;;;;;;;;;4974839;28;20282;-62
2023/12/25 03:23:07;;;;;;;;;;;;;;;;;;4990893;28;19914;-62
2023/12/25 03:25:33;;;;;;;;;;;;;;;;;;4980207;28;19921;-62
2023/12/25 03:27:59;;;;;;;;;;;;;;;;;;4988178;28;19960;-61
2023/12/25 03:30:25;;;;;;;;;;;;;;;;;;4989659;28;19961;-61
2023/12/25 03:32:51;;;;;;;;;;;;;;;;;;4986193;28;20017;-63
2023/12/25 03:35:17;;;;;;;;;;;;;;;;;;4972280;28;19914;-60
2023/12/25 03:37:43;;;;;;;;;;;;;;;;;;4986566;28;20056;-60
2023/12/25 03:40:09;;;;;;;;;;;;;;;;;;4992592;28;20378;-61
2023/12/25 03:42:36;;;;;;;;;;;;;;;;;;4991262;28;19984;-58
2023/12/25 03:45:02;;;;;;;;;;;;;;;;;;4992293;28;20325;-60
2023/12/25 03:47:28;;;;;;;;;;;;;;;;;;4973302;28;19918;-61
2023/12/25 03:49:54;;;;;;;;;;;;;;;;;;4978337;28;20380;-62
2023/12/25 03:52:20;;;;;;;;;;;;;;;;;;4981503;28;19918;-62
2023/12/25 03:54:46;;;;;;;;;;;;;;;;;;4972212;28;20389;-62
2023/12/25 03:57:13;;;;;;;;;;;;;;;;;;4974461;28;19922;-61
2023/12/25 03:59:39;;;;;;;;;;;;;;;;;;4973265;28;19921;-60
2023/12/25 04:02:05;;;;;;;;;;;;;;;;;;4980182;28;20359;-61
2023/12/25 04:04:31;;;;;;;;;;;;;;;;;;4971863;28;20386;-60
2023/12/25 04:06:58;;;;;;;;;;;;;;;;;;4964339;28;20393;-60
2023/12/25 04:09:24;;;;;;;;;;;;;;;;;;4992025;28;19968;-62
2023/12/25 04:11:50;;;;;;;;;;;;;;;;;;4980517;28;19918;-60
2023/12/25 04:14:16;;;;;;;;;;;;;;;;;;4976318;28;19981;-60
2023/12/25 04:16:42;;;;;;;;;;;;;;;;;;4977797;28;20417;-61
2023/12/25 04:19:08;;;;;;;;;;;;;;;;;;4977790;28;19913;-62
2023/12/25 04:21:36;;;;;;;;;;;;;;;;;;4983401;28;19938;-63
2023/12/25 04:24:02;;;;;;;;;;;;;;;;;;4971818;28;19915;-61
2023/12/25 04:26:28;;;;;;;;;;;;;;;;;;4973762;28;19922;-60
2023/12/25 04:28:54;;;;;;;;;;;;;;;;;;4979091;28;19967;-60
2023/12/25 04:31:21;;;;;;;;;;;;;;;;;;4980627;28;20025;-61
2023/12/25 04:33:48;;;;;;;;;;;;;;;;;;4972919;28;19914;-61
2023/12/25 04:36:14;;;;;;;;;;;;;;;;;;4979313;28;20495;-60
2023/12/25 04:38:40;;;;;;;;;;;;;;;;;;4990789;28;19913;-60
2023/12/25 04:41:07;;;;;;;;;;;;;;;;;;4990541;28;20385;-60
2023/12/25 04:43:33;;;;;;;;;;;;;;;;;;4993084;28;19968;-58
2023/12/25 04:46:02;;;;;;;;;;;;;;;;;;4993078;28;20021;-60
2023/12/25 04:48:28;;;;;;;;;;;;;;;;;;4983111;28;19921;-61
2023/12/25 04:50:54;;;;;;;;;;;;;;;;;;4975136;28;19918;-61
2023/12/25 04:53:20;;;;;;;;;;;;;;;;;;4976266;28;19953;-61
2023/12/25 04:55:46;;;;;;;;;;;;;;;;;;4975171;28;19922;-60
2023/12/25 04:58:12;;;;;;;;;;;;;;;;;;4978402;28;20009;-59
2023/12/25 05:00:39;;;;;;;;;;;;;;;;;;4980411;28;20383;-60
2023/12/25 05:03:05;;;;;;;;;;;;;;;;;;4994128;28;19918;-60
2023/12/25 05:05:32;;;;;;;;;;;;;;;;;;4983945;28;19929;-61
2023/12/25 05:07:58;;;;;;;;;;;;;;;;;;4985636;28;19964;-61
2023/12/25 05:10:24;;;;;;;;;;;;;;;;;;4974765;28;20387;-61
2023/12/25 05:12:50;;;;;;;;;;;;;;;;;;4980968;28;20045;-62
2023/12/25 05:15:16;;;;;;;;;;;;;;;;;;4991921;28;19921;-61
2023/12/25 05:17:42;;;;;;;;;;;;;;;;;;4958524;28;20249;-61
2023/12/25 05:20:08;;;;;;;;;;;;;;;;;;4959592;28;19921;-60
2023/12/25 05:22:35;;;;;;;;;;;;;;;;;;4977700;28;20140;-60
2023/12/25 05:25:01;;;;;;;;;;;;;;;;;;4993564;28;19914;-61
2023/12/25 05:27:27;;;;;;;;;;;;;;;;;;4995319;28;19988;-60
2023/12/25 05:29:53;;;;;;;;;;;;;;;;;;4993205;28;20383;-60
2023/12/25 05:32:19;;;;;;;;;;;;;;;;;;4976707;28;19918;-59
2023/12/25 05:34:45;;;;;;;;;;;;;;;;;;4982800;28;19972;-59
2023/12/25 05:37:11;;;;;;;;;;;;;;;;;;4994823;28;19910;-61
2023/12/25 05:39:38;;;;;;;;;;;;;;;;;;4991877;28;19960;-61
2023/12/25 05:42:04;;;;;;;;;;;;;;;;;;4993408;28;19921;-62
2023/12/25 05:44:30;;;;;;;;;;;;;;;;;;4988053;28;20391;-62
2023/12/25 05:46:56;;;;;;;;;;;;;;;;;;4986692;28;20371;-61
2023/12/25 05:49:22;;;;;;;;;;;;;;;;;;4985714;28;19921;-61
2023/12/25 05:51:48;;;;;;;;;;;;;;;;;;4981962;28;19992;-62
2023/12/25 05:54:14;;;;;;;;;;;;;;;;;;4975155;28;19914;-62
2023/12/25 05:56:40;;;;;;;;;;;;;;;;;;4975144;28;20001;-61
2023/12/25 05:59:06;;;;;;;;;;;;;;;;;;4975198;28;20403;-60
2023/12/25 06:01:32;;;;;;;;;;;;;;;;;;4985123;28;20009;-62
2023/12/25 06:04:00;;;;;;;;;;;;;;;;;;4983385;28;19968;-62
2023/12/25 06:06:27;;;;;;;;;;;;;;;;;;4974880;28;20449;-62
2023/12/25 06:08:53;;;;;;;;;;;;;;;;;;4973639;28;19914;-62
2023/12/25 06:11:19;;;;;;;;;;;;;;;;;;4978398;28;19925;-61
2023/12/25 06:13:45;;;;;;;;;;;;;;;;;;4984287;28;19926;-61
2023/12/25 06:16:11;;;;;;;;;;;;;;;;;;4985942;28;20363;-61
2023/12/25 06:18:37;;;;;;;;;;;;;;;;;;4974888;28;20012;-62
2023/12/25 06:21:03;;;;;;;;;;;;;;;;;;4974836;28;20336;-62
2023/12/25 06:23:30;;;;;;;;;;;;;;;;;;4977789;28;19914;-62
2023/12/25 06:25:56;;;;;;;;;;;;;;;;;;4981165;28;20009;-62
2023/12/25 06:28:22;;;;;;;;;;;;;;;;;;4974608;28;20367;-62
2023/12/25 06:30:51;;;;;;;;;;;;;;;;;;4974778;28;19918;-61
2023/12/25 06:33:17;;;;;;;;;;;;;;;;;;4985065;28;19921;-62
2023/12/25 06:35:43;;;;;;;;;;;;;;;;;;4990520;28;19918;-62
2023/12/25 06:38:09;;;;;;;;;;;;;;;;;;4993725;28;20013;-62
2023/12/25 06:40:35;;;;;;;;;;;;;;;;;;4978752;28;19925;-62
2023/12/25 06:43:01;;;;;;;;;;;;;;;;;;4992098;28;19920;-62
2023/12/25 06:45:27;;;;;;;;;;;;;;;;;;4987994;28;19914;-62
2023/12/25 06:47:53;;;;;;;;;;;;;;;;;;4989828;28;19922;-62
2023/12/25 06:50:20;;;;;;;;;;;;;;;;;;4985610;28;20403;-61
2023/12/25 06:52:46;;;;;;;;;;;;;;;;;;4992245;28;19917;-62
2023/12/25 06:55:12;;;;;;;;;;;;;;;;;;4974337;28;19911;-61
2023/12/25 06:57:38;;;;;;;;;;;;;;;;;;4978248;28;20031;-61
2023/12/25 07:00:04;;;;;;;;;;;;;;;;;;4992951;28;19913;-61
2023/12/25 07:02:30;;;;;;;;;;;;;;;;;;4973881;28;19921;-59
2023/12/25 07:04:56;;;;;;;;;;;;;;;;;;4973502;28;19921;-61
2023/12/25 07:07:22;;;;;;;;;;;;;;;;;;4975685;28;19925;-60
2023/12/25 07:09:48;;;;;;;;;;;;;;;;;;4991704;28;19922;-60
2023/12/25 07:12:14;;;;;;;;;;;;;;;;;;4983436;28;19918;-61
2023/12/25 07:14:41;;;;;;;;;;;;;;;;;;4975096;28;19969;-62
2023/12/25 07:17:08;;;;;;;;;;;;;;;;;;4984855;28;20275;-61
2023/12/25 07:19:34;;;;;;;;;;;;;;;;;;4973510;28;19969;-62
2023/12/25 07:22:01;;;;;;;;;;;;;;;;;;4974810;28;19914;-61
2023/12/25 07:24:27;;;;;;;;;;;;;;;;;;4975806;28;19981;-61
2023/12/25 07:26:53;;;;;;;;;;;;;;;;;;4992949;28;20013;-61
2023/12/25 07:29:26;;;;;;;;;;;;;;;;;;4992819;28;19925;-60
2023/12/25 07:31:52;;;;;;;;;;;;;;;;;;4980543;28;20375;-61
2023/12/25 07:34:19;;;;;;;;;;;;;;;;;;4985150;28;20402;-61
2023/12/25 07:36:45;;;;;;;;;;;;;;;;;;4984389;28;19921;-61
2023/12/25 07:39:12;;;;;;;;;;;;;;;;;;4990257;28;19913;-61
2023/12/25 07:41:38;;;;;;;;;;;;;;;;;;4973476;28;20009;-61
2023/12/25 07:44:04;;;;;;;;;;;;;;;;;;4981526;28;20325;-61
2023/12/25 07:46:30;;;;;;;;;;;;;;;;;;4978041;28;19926;-61
2023/12/25 07:48:56;;;;;;;;;;;;;;;;;;4986646;28;19933;-59
2023/12/25 07:51:23;;;;;;;;;;;;;;;;;;4973385;28;19926;-60
2023/12/25 07:53:49;;;;;;;;;;;;;;;;;;4974590;28;19917;-62
2023/12/25 07:56:15;;;;;;;;;;;;;;;;;;4971911;28;20395;-60
2023/12/25 07:58:41;;;;;;;;;;;;;;;;;;4983951;28;19910;-61
2023/12/25 08:01:09;;;;;;;;;;;;;;;;;;4982547;28;20412;-61
2023/12/25 08:03:35;;;;;;;;;;;;;;;;;;4978351;28;20382;-62
2023/12/25 08:06:02;;;;;;;;;;;;;;;;;;4972843;28;19914;-60
2023/12/25 08:08:28;;;;;;;;;;;;;;;;;;4976632;28;20290;-60
2023/12/25 08:10:54;;;;;;;;;;;;;;;;;;4974190;28;19964;-62
2023/12/25 08:13:20;;;;;;;;;;;;;;;;;;4980021;28;19957;-59
2023/12/25 08:15:46;;;;;;;;;;;;;;;;;;4969351;28;19918;-60
2023/12/25 08:18:12;;;;;;;;;;;;;;;;;;4975295;28;19924;-55
2023/12/25 08:20:38;;;;;;;;;;;;;;;;;;4982618;28;20417;-56
2023/12/25 08:23:05;;;;;;;;;;;;;;;;;;4995473;28;20366;-56
2023/12/25 08:25:31;;;;;;;;;;;;;;;;;;5001624;28;19914;-58
2023/12/25 08:27:57;;;;;;;;;;;;;;;;;;5004374;28;19961;-59
2023/12/25 08:30:23;;;;;;;;;;;;;;;;;;5007084;28;19914;-57
2023/12/25 08:32:49;;;;;;;;;;;;;;;;;;5002055;28;19917;-59
2023/12/25 08:35:15;;;;;;;;;;;;;;;;;;5008217;28;19932;-58
2023/12/25 08:37:41;;;;;;;;;;;;;;;;;;5015765;28;20489;-56
2023/12/25 08:40:07;;;;;;;;;;;;;;;;;;4998723;28;20329;-58
2023/12/25 08:42:33;;;;;;;;;;;;;;;;;;5013237;28;20004;-59
2023/12/25 08:44:59;;;;;;;;;;;;;;;;;;5012330;28;19920;-59
2023/12/25 08:47:26;;;;;;;;;;;;;;;;;;4995682;28;19921;-56
2023/12/25 08:49:52;;;;;;;;;;;;;;;;;;4989047;28;20330;-60
2023/12/25 08:52:20;;;;;;;;;;;;;;;;;;4988410;28;20379;-60
2023/12/25 08:54:46;;;;;;;;;;;;;;;;;;4985768;28;19917;-59
2023/12/25 08:57:12;;;;;;;;;;;;;;;;;;4995474;28;20354;-59
2023/12/25 08:59:38;;;;;;;;;;;;;;;;;;4993183;28;19960;-59
2023/12/25 09:02:04;;;;;;;;;;;;;;;;;;5001181;28;19921;-60
2023/12/25 09:04:30;;;;;;;;;;;;;;;;;;5002453;28;20310;-60
2023/12/25 09:06:56;;;;;;;;;;;;;;;;;;5007778;28;19932;-60
2023/12/25 09:09:23;;;;;;;;;;;;;;;;;;4998843;28;20278;-58
2023/12/25 09:11:49;;;;;;;;;;;;;;;;;;4989218;28;19918;-61
2023/12/25 09:14:15;;;;;;;;;;;;;;;;;;4979662;28;19918;-58
2023/12/25 09:16:41;;;;;;;;;;;;;;;;;;4979170;28;19910;-58
2023/12/25 09:19:08;;;;;;;;;;;;;;;;;;4977201;28;19921;-59
2023/12/25 09:21:34;;;;;;;;;;;;;;;;;;4980899;28;19928;-61
2023/12/25 09:24:00;;;;;;;;;;;;;;;;;;4982214;28;19925;-52
2023/12/25 09:26:26;;;;;;;;;;;;;;;;;;4993420;28;19918;-53
2023/12/25 09:28:52;;;;;;;;;;;;;;;;;;4977706;28;19918;-55
2023/12/25 09:31:18;;;;;;;;;;;;;;;;;;4981857;28;20306;-55
2023/12/25 09:33:45;;;;;;;;;;;;;;;;;;4993422;28;19919;-56
2023/12/25 09:36:11;;;;;;;;;;;;;;;;;;4992005;28;19965;-57
2023/12/25 09:38:37;;;;;;;;;;;;;;;;;;4993415;28;19940;-57
2023/12/25 09:41:03;;;;;;;;;;;;;;;;;;4991284;28;19918;-59
2023/12/25 09:43:29;;;;;;;;;;;;;;;;;;4985854;28;20020;-57
2023/12/25 09:45:55;;;;;;;;;;;;;;;;;;4985828;28;19968;-60
2023/12/25 09:48:21;;;;;;;;;;;;;;;;;;5001468;28;19921;-59
2023/12/25 09:50:47;;;;;;;;;;;;;;;;;;5001879;28;19937;-60
2023/12/25 09:53:13;;;;;;;;;;;;;;;;;;5002240;28;19920;-59
2023/12/25 09:55:40;;;;;;;;;;;;;;;;;;5007756;28;19948;-60
2023/12/25 09:58:06;;;;;;;;;;;;;;;;;;4982061;28;19918;-57
2023/12/25 10:00:32;;;;;;;;;;;;;;;;;;4981002;28;20386;-60
2023/12/25 10:02:58;;;;;;;;;;;;;;;;;;5001791;28;20397;-60
2023/12/25 10:05:24;;;;;;;;;;;;;;;;;;5005782;28;19914;-60
2023/12/25 10:07:50;;;;;;;;;;;;;;;;;;5006558;28;19920;-60
2023/12/25 10:10:16;;;;;;;;;;;;;;;;;;5006865;28;19913;-60
2023/12/25 10:12:43;;;;;;;;;;;;;;;;;;5006493;28;20397;-59
2023/12/25 10:15:09;;;;;;;;;;;;;;;;;;5007436;28;19993;-60
2023/12/25 10:17:35;;;;;;;;;;;;;;;;;;5001556;28;19944;-60
2023/12/25 10:20:01;;;;;;;;;;;;;;;;;;4993785;28;19941;-60
2023/12/25 10:22:27;;;;;;;;;;;;;;;;;;4993991;28;19994;-60
2023/12/25 10:24:54;;;;;;;;;;;;;;;;;;4995448;28;19910;-60
2023/12/25 10:27:20;;;;;;;;;;;;;;;;;;4994814;28;19914;-61
2023/12/25 10:29:46;;;;;;;;;;;;;;;;;;4993819;28;19961;-60
2023/12/25 10:32:12;;;;;;;;;;;;;;;;;;4975422;28;19972;-60
2023/12/25 10:34:38;;;;;;;;;;;;;;;;;;4995935;28;19953;-60
2023/12/25 10:37:04;;;;;;;;;;;;;;;;;;4997580;28;19917;-61
2023/12/25 10:39:31;;;;;;;;;;;;;;;;;;5008959;28;19914;-61
2023/12/25 10:41:57;;;;;;;;;;;;;;;;;;4982152;28;20008;-61
2023/12/25 10:44:23;;;;;;;;;;;;;;;;;;4988529;28;19921;-61
2023/12/25 10:46:49;;;;;;;;;;;;;;;;;;4992897;28;20383;-61
2023/12/25 10:49:15;;;;;;;;;;;;;;;;;;4985052;28;19921;-61
2023/12/25 10:51:43;;;;;;;;;;;;;;;;;;4997568;28;20299;-61
2023/12/25 10:54:10;;;;;;;;;;;;;;;;;;5011672;28;19996;-61
2023/12/25 10:56:36;;;;;;;;;;;;;;;;;;5012807;28;19917;-61
2023/12/25 10:59:02;;;;;;;;;;;;;;;;;;5009459;28;19916;-60
2023/12/25 11:01:28;;;;;;;;;;;;;;;;;;4995075;28;19921;-60
2023/12/25 11:03:54;;;;;;;;;;;;;;;;;;4988277;28;19914;-59
2023/12/25 11:06:20;;;;;;;;;;;;;;;;;;4990433;28;20391;-60
2023/12/25 11:08:46;;;;;;;;;;;;;;;;;;4991609;28;20345;-59
2023/12/25 11:11:16;;;;;;;;;;;;;;;;;;4987133;28;20429;-60
2023/12/25 11:13:42;;;;;;;;;;;;;;;;;;4993552;28;19993;-60
2023/12/25 11:16:08;;;;;;;;;;;;;;;;;;4983312;28;19968;-60
2023/12/25 11:18:37;;;;;;;;;;;;;;;;;;4980996;28;19913;-59
2023/12/25 11:21:06;;;;;;;;;;;;;;;;;;4984504;28;19968;-60
2023/12/25 11:23:32;;;;;;;;;;;;;;;;;;4979657;28;19917;-61
2023/12/25 11:25:58;;;;;;;;;;;;;;;;;;4983365;28;19961;-54
2023/12/25 11:28:24;;;;;;;;;;;;;;;;;;4977238;28;19914;-56
2023/12/25 11:30:50;;;;;;;;;;;;;;;;;;4984166;28;19918;-59
2023/12/25 11:33:16;;;;;;;;;;;;;;;;;;4984536;28;19965;-58
2023/12/25 11:35:42;;;;;;;;;;;;;;;;;;4985291;28;19937;-59
2023/12/25 11:38:08;;;;;;;;;;;;;;;;;;4991523;28;20402;-59
2023/12/25 11:40:34;;;;;;;;;;;;;;;;;;4990216;28;19949;-60
2023/12/25 11:43:00;;;;;;;;;;;;;;;;;;4992980;28;19910;-58
2023/12/25 11:45:26;;;;;;;;;;;;;;;;;;4985225;28;19922;-59
2023/12/25 11:47:54;;;;;;;;;;;;;;;;;;4999538;28;19921;-60
2023/12/25 11:50:20;;;;;;;;;;;;;;;;;;4992594;28;19922;-57
2023/12/25 11:52:46;;;;;;;;;;;;;;;;;;4985401;28;19922;-60
2023/12/25 11:55:12;;;;;;;;;;;;;;;;;;4974453;28;19914;-59
2023/12/25 11:57:38;;;;;;;;;;;;;;;;;;4973398;28;19910;-60
2023/12/25 12:00:04;;;;;;;;;;;;;;;;;;4973524;28;19914;-59
2023/12/25 12:02:38;;;;;;;;;;;;;;;;;;4981632;28;19914;-59
2023/12/25 12:05:04;;;;;;;;;;;;;;;;;;4985863;28;19913;-60
2023/12/25 12:07:30;;;;;;;;;;;;;;;;;;4992452;28;20402;-59
2023/12/25 12:09:56;;;;;;;;;;;;;;;;;;4989641;28;19922;-60
2023/12/25 12:12:22;;;;;;;;;;;;;;;;;;4980836;28;19934;-60
2023/12/25 12:14:48;;;;;;;;;;;;;;;;;;4991184;28;19961;-58
2023/12/25 12:17:16;;;;;;;;;;;;;;;;;;4974913;28;19910;-58
2023/12/25 12:19:42;;;;;;;;;;;;;;;;;;4982405;28;19920;-58
2023/12/25 12:22:08;;;;;;;;;;;;;;;;;;4984613;28;19922;-58
2023/12/25 12:24:34;;;;;;;;;;;;;;;;;;4971821;28;19955;-58
2023/12/25 12:27:00;;;;;;;;;;;;;;;;;;4973091;28;19917;-58
2023/12/25 12:29:26;;;;;;;;;;;;;;;;;;4973416;28;20318;-58
2023/12/25 12:31:52;;;;;;;;;;;;;;;;;;4979217;28;19918;-58
2023/12/25 12:34:18;;;;;;;;;;;;;;;;;;4989006;28;19914;-57
2023/12/25 12:36:44;;;;;;;;;;;;;;;;;;4972826;28;19921;-58
2023/12/25 12:39:10;;;;;;;;;;;;;;;;;;4973061;28;19968;-58
2023/12/25 12:41:36;;;;;;;;;;;;;;;;;;4974616;28;20061;-58
2023/12/25 12:44:03;;;;;;;;;;;;;;;;;;4979273;28;19915;-58
2023/12/25 12:46:29;;;;;;;;;;;;;;;;;;4982118;28;20394;-58
2023/12/25 12:48:55;;;;;;;;;;;;;;;;;;4992021;28;19921;-58
2023/12/25 12:51:23;;;;;;;;;;;;;;;;;;4989063;28;19924;-58
2023/12/25 12:53:49;;;;;;;;;;;;;;;;;;4982218;28;20004;-58
2023/12/25 12:56:15;;;;;;;;;;;;;;;;;;4972707;28;20364;-58
2023/12/25 12:58:42;;;;;;;;;;;;;;;;;;4979251;28;19936;-58
2023/12/25 13:01:08;;;;;;;;;;;;;;;;;;4984043;28;19970;-57
2023/12/25 13:03:35;;;;;;;;;;;;;;;;;;4981468;28;19921;-58
2023/12/25 13:06:01;;;;;;;;;;;;;;;;;;4974878;28;20009;-58
2023/12/25 13:08:27;;;;;;;;;;;;;;;;;;4975052;28;19918;-58
2023/12/25 13:10:53;;;;;;;;;;;;;;;;;;4988839;28;19910;-57
2023/12/25 13:13:20;;;;;;;;;;;;;;;;;;4985499;28;20410;-58
2023/12/25 13:15:46;;;;;;;;;;;;;;;;;;4981391;28;20343;-58
2023/12/25 13:18:12;;;;;;;;;;;;;;;;;;4990922;28;19914;-58
2023/12/25 13:20:38;;;;;;;;;;;;;;;;;;4958728;28;19921;-58
2023/12/25 13:23:04;;;;;;;;;;;;;;;;;;4983563;28;20000;-58
2023/12/25 13:25:30;;;;;;;;;;;;;;;;;;4985098;28;19964;-58
2023/12/25 13:27:56;;;;;;;;;;;;;;;;;;4981960;28;20052;-57
2023/12/25 13:30:22;;;;;;;;;;;;;;;;;;4978116;28;20027;-57
2023/12/25 13:32:48;;;;;;;;;;;;;;;;;;4992045;28;20287;-58
2023/12/25 13:35:14;;;;;;;;;;;;;;;;;;4993566;28;19921;-58
2023/12/25 13:37:40;;;;;;;;;;;;;;;;;;4991321;28;19942;-58
2023/12/25 13:40:06;;;;;;;;;;;;;;;;;;4976099;28;19925;-56
2023/12/25 13:42:33;;;;;;;;;;;;;;;;;;4977178;28;20291;-58
2023/12/25 13:44:59;;;;;;;;;;;;;;;;;;4977623;28;19918;-58
2023/12/25 13:47:27;;;;;;;;;;;;;;;;;;4986433;28;20468;-58
2023/12/25 13:49:53;;;;;;;;;;;;;;;;;;4975543;28;19910;-57
2023/12/25 13:52:19;;;;;;;;;;;;;;;;;;4984352;28;19924;-58
2023/12/25 13:54:45;;;;;;;;;;;;;;;;;;4991511;28;19914;-57
2023/12/25 13:57:11;;;;;;;;;;;;;;;;;;4985630;28;19914;-57
2023/12/25 13:59:37;;;;;;;;;;;;;;;;;;4992956;28;19928;-57
2023/12/25 14:02:07;;;;;;;;;;;;;;;;;;4978566;28;19918;-57
2023/12/25 14:04:34;;;;;;;;;;;;;;;;;;4973878;28;19914;-58
2023/12/25 14:07:00;;;;;;;;;;;;;;;;;;4976206;28;19921;-58
2023/12/25 14:09:26;;;;;;;;;;;;;;;;;;4976264;28;19972;-57
2023/12/25 14:11:52;;;;;;;;;;;;;;;;;;4976476;28;20383;-58
2023/12/25 14:14:18;;;;;;;;;;;;;;;;;;4976143;28;20319;-58
2023/12/25 14:16:44;;;;;;;;;;;;;;;;;;4986490;28;19949;-56
2023/12/25 14:19:10;;;;;;;;;;;;;;;;;;4994226;28;19914;-57
2023/12/25 14:21:36;;;;;;;;;;;;;;;;;;4978782;28;20330;-57
2023/12/25 14:24:02;;;;;;;;;;;;;;;;;;4975019;28;19914;-57
2023/12/25 14:26:28;;;;;;;;;;;;;;;;;;4975921;28;19921;-57
2023/12/25 14:28:54;;;;;;;;;;;;;;;;;;4974959;28;19921;-57
2023/12/25 14:31:20;;;;;;;;;;;;;;;;;;4978528;28;19918;-57
2023/12/25 14:33:46;;;;;;;;;;;;;;;;;;4976844;28;20383;-58
2023/12/25 14:36:12;;;;;;;;;;;;;;;;;;4993456;28;20391;-57
2023/12/25 14:38:39;;;;;;;;;;;;;;;;;;4994088;28;19917;-57
2023/12/25 14:41:06;;;;;;;;;;;;;;;;;;4991171;28;20334;-58
2023/12/25 14:43:32;;;;;;;;;;;;;;;;;;4993692;28;19914;-56
2023/12/25 14:45:58;;;;;;;;;;;;;;;;;;4984765;28;19921;-57
2023/12/25 14:48:24;;;;;;;;;;;;;;;;;;4974568;28;19914;-57
2023/12/25 14:50:50;;;;;;;;;;;;;;;;;;4975371;28;19969;-58
2023/12/25 14:53:16;;;;;;;;;;;;;;;;;;4981924;28;20306;-57
2023/12/25 14:55:42;;;;;;;;;;;;;;;;;;4978058;28;19960;-57
2023/12/25 14:58:08;;;;;;;;;;;;;;;;;;4972866;28;19914;-53
2023/12/25 15:00:34;;;;;;;;;;;;;;;;;;4989305;28;19921;-55
2023/12/25 15:03:00;;;;;;;;;;;;;;;;;;4974339;28;19914;-54
2023/12/25 15:05:26;;;;;;;;;;;;;;;;;;4985208;28;19917;-52
2023/12/25 15:07:56;;;;;;;;;;;;;;;;;;4974733;28;19957;-52
2023/12/25 15:10:22;;;;;;;;;;;;;;;;;;4985898;28;20290;-54
2023/12/25 15:12:48;;;;;;;;;;;;;;;;;;4984760;28;19921;-55
2023/12/25 15:15:14;;;;;;;;;;;;;;;;;;4992955;28;19921;-53
2023/12/25 15:17:40;;;;;;;;;;;;;;;;;;4991592;28;19913;-52
2023/12/25 15:20:06;;;;;;;;;;;;;;;;;;4992694;28;19922;-54
2023/12/25 15:22:32;;;;;;;;;;;;;;;;;;4977880;28;19914;-55
2023/12/25 15:24:58;;;;;;;;;;;;;;;;;;4974589;28;19921;-54
2023/12/25 15:27:24;;;;;;;;;;;;;;;;;;4977213;28;19964;-50
2023/12/25 15:29:50;;;;;;;;;;;;;;;;;;4973822;28;19914;-52
2023/12/25 15:32:16;;;;;;;;;;;;;;;;;;4980290;28;19921;-55
2023/12/25 15:34:43;;;;;;;;;;;;;;;;;;4992919;28;19914;-53
2023/12/25 15:37:09;;;;;;;;;;;;;;;;;;4987815;28;19921;-56
2023/12/25 15:39:35;;;;;;;;;;;;;;;;;;4972769;28;19920;-55
2023/12/25 15:42:01;;;;;;;;;;;;;;;;;;5001742;28;19914;-54
2023/12/25 15:44:27;;;;;;;;;;;;;;;;;;4997238;28;19918;-54
2023/12/25 15:46:55;;;;;;;;;;;;;;;;;;4992110;28;19924;-55
2023/12/25 15:49:21;;;;;;;;;;;;;;;;;;4990230;28;19921;-55
2023/12/25 15:51:47;;;;;;;;;;;;;;;;;;4992701;28;19964;-52
2023/12/25 15:54:13;;;;;;;;;;;;;;;;;;4992832;28;19914;-47
2023/12/25 15:56:39;;;;;;;;;;;;;;;;;;4992565;28;19914;-48
2023/12/25 15:59:06;;;;;;;;;;;;;;;;;;4990749;28;20023;-51
2023/12/25 16:01:32;;;;;;;;;;;;;;;;;;4973240;28;20312;-50
2023/12/25 16:03:59;;;;;;;;;;;;;;;;;;4974820;28;19962;-49
2023/12/25 16:06:25;;;;;;;;;;;;;;;;;;4974223;28;20399;-47
2023/12/25 16:08:53;;;;;;;;;;;;;;;;;;4980717;28;19914;-49
2023/12/25 16:11:19;;;;;;;;;;;;;;;;;;4988470;28;20249;-46
2023/12/25 16:13:45;;;;;;;;;;;;;;;;;;4984113;28;19984;-47
2023/12/25 16:16:11;;;;;;;;;;;;;;;;;;4978204;28;19964;-49
2023/12/25 16:18:37;;;;;;;;;;;;;;;;;;4986339;28;19917;-47
2023/12/25 16:21:03;;;;;;;;;;;;;;;;;;4973583;28;19973;-48
2023/12/25 16:23:30;;;;;;;;;;;;;;;;;;4987991;28;19922;-47
2023/12/25 16:25:57;;;;;;;;;;;;;;;;;;4988843;28;19952;-47
2023/12/25 16:28:23;;;;;;;;;;;;;;;;;;4977918;28;19918;-51
2023/12/25 16:30:51;;;;;;;;;;;;;;;;;;4977041;28;19921;-50
2023/12/25 16:33:17;;;;;;;;;;;;;;;;;;4986552;28;20410;-53
2023/12/25 16:35:43;;;;;;;;;;;;;;;;;;4981713;28;20291;-49
2023/12/25 16:38:09;;;;;;;;;;;;;;;;;;4975032;28;19914;-52